sensor_id;sensor_type;location;lat;lon;timestamp;P1;durP1;ratioP1;P2;durP2;ratioP2
19547;SDS011;9919;58.014;11.826;2024-03-22T00:00:17;0.85;;;0.38;;
19547;SDS011;9919;58.014;11.826;2024-03-22T00:02:19;0.63;;;0.52;;
19547;SDS011;9919;58.014;11.826;2024-03-22T00:04:20;0.60;;;0.60;;
19547;SDS011;9919;58.014;11.826;2024-03-22T00:06:23;0.40;;;0.40;;
19547;SDS011;9919;58.014;11.826;2024-03-22T00:08:24;0.65;;;0.65;;
19547;SDS011;9919;58.014;11.826;2024-03-22T00:10:26;0.60;;;0.60;;
19547;SDS011;9919;58.014;11.826;2024-03-22T00:12:27;0.57;;;0.57;;
19547;SDS011;9919;58.014;11.826;2024-03-22T00:14:28;0.55;;;0.47;;
19547;SDS011;9919;58.014;11.826;2024-03-22T00:16:30;1.08;;;0.65;;
19547;SDS011;9919;58.014;11.826;2024-03-22T00:18:31;0.40;;;0.40;;
19547;SDS011;9919;58.014;11.826;2024-03-22T00:20:33;0.90;;;0.70;;
19547;SDS011;9919;58.014;11.826;2024-03-22T00:22:34;0.55;;;0.55;;
19547;SDS011;9919;58.014;11.826;2024-03-22T00:24:35;0.50;;;0.50;;
19547;SDS011;9919;58.014;11.826;2024-03-22T00:26:36;1.30;;;0.85;;
19547;SDS011;9919;58.014;11.826;2024-03-22T00:28:38;0.50;;;0.50;;
19547;SDS011;9919;58.014;11.826;2024-03-22T00:30:39;0.40;;;0.40;;
19547;SDS011;9919;58.014;11.826;2024-03-22T00:32:42;0.32;;;0.32;;
19547;SDS011;9919;58.014;11.826;2024-03-22T00:34:47;0.88;;;0.40;;
19547;SDS011;9919;58.014;11.826;2024-03-22T00:36:49;0.32;;;0.32;;
19547;SDS011;9919;58.014;11.826;2024-03-22T00:38:51;0.40;;;0.30;;
19547;SDS011;9919;58.014;11.826;2024-03-22T00:40:52;0.65;;;0.40;;
19547;SDS011;9919;58.014;11.826;2024-03-22T00:42:54;0.50;;;0.50;;
19547;SDS011;9919;58.014;11.826;2024-03-22T00:44:55;0.40;;;0.40;;
19547;SDS011;9919;58.014;11.826;2024-03-22T00:46:57;2.15;;;0.60;;
19547;SDS011;9919;58.014;11.826;2024-03-22T00:48:59;0.55;;;0.47;;
19547;SDS011;9919;58.014;11.826;2024-03-22T00:51:00;0.40;;;0.40;;
19547;SDS011;9919;58.014;11.826;2024-03-22T00:53:02;0.47;;;0.47;;
19547;SDS011;9919;58.014;11.826;2024-03-22T00:55:05;0.80;;;0.73;;
19547;SDS011;9919;58.014;11.826;2024-03-22T00:57:07;0.50;;;0.50;;
19547;SDS011;9919;58.014;11.826;2024-03-22T00:59:08;0.90;;;0.60;;
19547;SDS011;9919;58.014;11.826;2024-03-22T01:01:09;0.50;;;0.50;;
19547;SDS011;9919;58.014;11.826;2024-03-22T01:03:11;3.83;;;0.40;;
19547;SDS011;9919;58.014;11.826;2024-03-22T01:05:12;0.45;;;0.45;;
19547;SDS011;9919;58.014;11.826;2024-03-22T01:07:14;0.47;;;0.47;;
19547;SDS011;9919;58.014;11.826;2024-03-22T01:09:15;0.30;;;0.30;;
19547;SDS011;9919;58.014;11.826;2024-03-22T01:11:17;0.40;;;0.30;;
19547;SDS011;9919;58.014;11.826;2024-03-22T01:13:19;0.43;;;0.43;;
19547;SDS011;9919;58.014;11.826;2024-03-22T01:15:20;0.60;;;0.60;;
19547;SDS011;9919;58.014;11.826;2024-03-22T01:17:22;0.45;;;0.45;;
19547;SDS011;9919;58.014;11.826;2024-03-22T01:19:23;0.50;;;0.50;;
19547;SDS011;9919;58.014;11.826;2024-03-22T01:21:25;0.55;;;0.55;;
19547;SDS011;9919;58.014;11.826;2024-03-22T01:23:26;0.50;;;0.50;;
19547;SDS011;9919;58.014;11.826;2024-03-22T01:25:28;0.52;;;0.52;;
19547;SDS011;9919;58.014;11.826;2024-03-22T01:27:29;0.50;;;0.50;;
19547;SDS011;9919;58.014;11.826;2024-03-22T01:29:31;0.80;;;0.63;;
19547;SDS011;9919;58.014;11.826;2024-03-22T01:31:32;0.50;;;0.50;;
19547;SDS011;9919;58.014;11.826;2024-03-22T01:33:34;0.55;;;0.45;;
19547;SDS011;9919;58.014;11.826;2024-03-22T01:35:36;1.30;;;0.50;;
19547;SDS011;9919;58.014;11.826;2024-03-22T01:37:37;0.20;;;0.20;;
19547;SDS011;9919;58.014;11.826;2024-03-22T01:39:39;0.55;;;0.38;;
19547;SDS011;9919;58.014;11.826;2024-03-22T01:41:40;0.32;;;0.32;;
19547;SDS011;9919;58.014;11.826;2024-03-22T01:43:42;0.40;;;0.40;;
19547;SDS011;9919;58.014;11.826;2024-03-22T01:45:43;0.70;;;0.70;;
19547;SDS011;9919;58.014;11.826;2024-03-22T01:47:45;1.20;;;0.38;;
19547;SDS011;9919;58.014;11.826;2024-03-22T01:49:47;1.02;;;0.45;;
19547;SDS011;9919;58.014;11.826;2024-03-22T01:51:49;0.43;;;0.43;;
19547;SDS011;9919;58.014;11.826;2024-03-22T01:53:51;0.38;;;0.38;;
19547;SDS011;9919;58.014;11.826;2024-03-22T01:55:53;0.70;;;0.45;;
19547;SDS011;9919;58.014;11.826;2024-03-22T01:57:54;0.57;;;0.57;;
19547;SDS011;9919;58.014;11.826;2024-03-22T01:59:56;0.30;;;0.30;;
19547;SDS011;9919;58.014;11.826;2024-03-22T02:01:58;0.50;;;0.50;;
19547;SDS011;9919;58.014;11.826;2024-03-22T02:03:59;1.17;;;0.35;;
19547;SDS011;9919;58.014;11.826;2024-03-22T02:06:01;0.60;;;0.28;;
19547;SDS011;9919;58.014;11.826;2024-03-22T02:08:03;0.50;;;0.50;;
19547;SDS011;9919;58.014;11.826;2024-03-22T02:10:04;0.35;;;0.35;;
19547;SDS011;9919;58.014;11.826;2024-03-22T02:12:08;0.30;;;0.30;;
19547;SDS011;9919;58.014;11.826;2024-03-22T02:14:09;0.30;;;0.30;;
19547;SDS011;9919;58.014;11.826;2024-03-22T02:16:11;0.47;;;0.47;;
19547;SDS011;9919;58.014;11.826;2024-03-22T02:18:13;0.20;;;0.20;;
19547;SDS011;9919;58.014;11.826;2024-03-22T02:20:14;0.65;;;0.47;;
19547;SDS011;9919;58.014;11.826;2024-03-22T02:22:16;0.60;;;0.60;;
19547;SDS011;9919;58.014;11.826;2024-03-22T02:24:17;0.35;;;0.35;;
19547;SDS011;9919;58.014;11.826;2024-03-22T02:26:18;0.55;;;0.47;;
19547;SDS011;9919;58.014;11.826;2024-03-22T02:28:20;0.40;;;0.40;;
19547;SDS011;9919;58.014;11.826;2024-03-22T02:30:21;1.38;;;0.50;;
19547;SDS011;9919;58.014;11.826;2024-03-22T02:32:22;0.75;;;0.57;;
19547;SDS011;9919;58.014;11.826;2024-03-22T02:34:24;0.35;;;0.35;;
19547;SDS011;9919;58.014;11.826;2024-03-22T02:36:26;0.50;;;0.50;;
19547;SDS011;9919;58.014;11.826;2024-03-22T02:38:28;0.55;;;0.47;;
19547;SDS011;9919;58.014;11.826;2024-03-22T02:40:29;0.32;;;0.32;;
19547;SDS011;9919;58.014;11.826;2024-03-22T02:42:30;0.55;;;0.55;;
19547;SDS011;9919;58.014;11.826;2024-03-22T02:44:32;0.50;;;0.50;;
19547;SDS011;9919;58.014;11.826;2024-03-22T02:46:33;0.28;;;0.28;;
19547;SDS011;9919;58.014;11.826;2024-03-22T02:48:34;0.30;;;0.30;;
19547;SDS011;9919;58.014;11.826;2024-03-22T02:50:36;0.30;;;0.30;;
19547;SDS011;9919;58.014;11.826;2024-03-22T02:52:38;0.40;;;0.40;;
19547;SDS011;9919;58.014;11.826;2024-03-22T02:54:39;0.70;;;0.40;;
19547;SDS011;9919;58.014;11.826;2024-03-22T02:56:41;0.57;;;0.38;;
19547;SDS011;9919;58.014;11.826;2024-03-22T02:58:42;0.63;;;0.63;;
19547;SDS011;9919;58.014;11.826;2024-03-22T03:00:43;0.40;;;0.40;;
19547;SDS011;9919;58.014;11.826;2024-03-22T03:02:45;0.40;;;0.40;;
19547;SDS011;9919;58.014;11.826;2024-03-22T03:04:46;0.50;;;0.40;;
19547;SDS011;9919;58.014;11.826;2024-03-22T03:06:48;0.30;;;0.30;;
19547;SDS011;9919;58.014;11.826;2024-03-22T03:08:49;0.40;;;0.40;;
19547;SDS011;9919;58.014;11.826;2024-03-22T03:10:51;0.40;;;0.40;;
19547;SDS011;9919;58.014;11.826;2024-03-22T03:12:54;0.85;;;0.47;;
19547;SDS011;9919;58.014;11.826;2024-03-22T03:14:55;0.50;;;0.50;;
19547;SDS011;9919;58.014;11.826;2024-03-22T03:16:57;0.38;;;0.38;;
19547;SDS011;9919;58.014;11.826;2024-03-22T03:18:58;0.88;;;0.47;;
19547;SDS011;9919;58.014;11.826;2024-03-22T03:20:59;0.40;;;0.40;;
19547;SDS011;9919;58.014;11.826;2024-03-22T03:23:01;0.43;;;0.43;;
19547;SDS011;9919;58.014;11.826;2024-03-22T03:25:05;0.47;;;0.47;;
19547;SDS011;9919;58.014;11.826;2024-03-22T03:27:07;0.47;;;0.40;;
19547;SDS011;9919;58.014;11.826;2024-03-22T03:29:08;0.40;;;0.40;;
19547;SDS011;9919;58.014;11.826;2024-03-22T03:31:10;0.65;;;0.40;;
19547;SDS011;9919;58.014;11.826;2024-03-22T03:33:11;0.10;;;0.10;;
19547;SDS011;9919;58.014;11.826;2024-03-22T03:35:12;0.43;;;0.38;;
19547;SDS011;9919;58.014;11.826;2024-03-22T03:37:14;1.25;;;0.52;;
19547;SDS011;9919;58.014;11.826;2024-03-22T03:39:15;0.52;;;0.50;;
19547;SDS011;9919;58.014;11.826;2024-03-22T03:41:16;0.38;;;0.38;;
19547;SDS011;9919;58.014;11.826;2024-03-22T03:43:18;0.22;;;0.22;;
19547;SDS011;9919;58.014;11.826;2024-03-22T03:45:19;0.40;;;0.40;;
19547;SDS011;9919;58.014;11.826;2024-03-22T03:47:21;0.22;;;0.22;;
19547;SDS011;9919;58.014;11.826;2024-03-22T03:49:23;0.50;;;0.50;;
19547;SDS011;9919;58.014;11.826;2024-03-22T03:51:24;0.93;;;0.60;;
19547;SDS011;9919;58.014;11.826;2024-03-22T03:53:25;0.50;;;0.50;;
19547;SDS011;9919;58.014;11.826;2024-03-22T03:55:27;0.20;;;0.20;;
19547;SDS011;9919;58.014;11.826;2024-03-22T03:57:28;0.77;;;0.32;;
19547;SDS011;9919;58.014;11.826;2024-03-22T03:59:30;0.25;;;0.25;;
19547;SDS011;9919;58.014;11.826;2024-03-22T04:01:31;0.60;;;0.60;;
19547;SDS011;9919;58.014;11.826;2024-03-22T04:03:33;0.28;;;0.28;;
19547;SDS011;9919;58.014;11.826;2024-03-22T04:05:34;0.32;;;0.32;;
19547;SDS011;9919;58.014;11.826;2024-03-22T04:07:36;0.28;;;0.28;;
19547;SDS011;9919;58.014;11.826;2024-03-22T04:09:39;0.20;;;0.20;;
19547;SDS011;9919;58.014;11.826;2024-03-22T04:11:40;0.38;;;0.38;;
19547;SDS011;9919;58.014;11.826;2024-03-22T04:13:41;0.28;;;0.28;;
19547;SDS011;9919;58.014;11.826;2024-03-22T04:15:43;0.55;;;0.55;;
19547;SDS011;9919;58.014;11.826;2024-03-22T04:17:44;0.28;;;0.28;;
19547;SDS011;9919;58.014;11.826;2024-03-22T04:19:46;0.40;;;0.40;;
19547;SDS011;9919;58.014;11.826;2024-03-22T04:21:49;0.38;;;0.30;;
19547;SDS011;9919;58.014;11.826;2024-03-22T04:23:51;0.40;;;0.40;;
19547;SDS011;9919;58.014;11.826;2024-03-22T04:25:55;0.10;;;0.10;;
19547;SDS011;9919;58.014;11.826;2024-03-22T04:27:58;0.13;;;0.13;;
19547;SDS011;9919;58.014;11.826;2024-03-22T04:30:00;0.60;;;0.60;;
19547;SDS011;9919;58.014;11.826;2024-03-22T04:32:02;0.43;;;0.43;;
19547;SDS011;9919;58.014;11.826;2024-03-22T04:34:03;0.43;;;0.43;;
19547;SDS011;9919;58.014;11.826;2024-03-22T04:36:07;0.55;;;0.55;;
19547;SDS011;9919;58.014;11.826;2024-03-22T04:38:09;0.47;;;0.47;;
19547;SDS011;9919;58.014;11.826;2024-03-22T04:40:11;0.28;;;0.28;;
19547;SDS011;9919;58.014;11.826;2024-03-22T04:42:12;0.43;;;0.43;;
19547;SDS011;9919;58.014;11.826;2024-03-22T04:44:13;0.30;;;0.30;;
19547;SDS011;9919;58.014;11.826;2024-03-22T04:46:15;0.90;;;0.47;;
19547;SDS011;9919;58.014;11.826;2024-03-22T04:48:17;0.60;;;0.60;;
19547;SDS011;9919;58.014;11.826;2024-03-22T04:50:20;0.32;;;0.30;;
19547;SDS011;9919;58.014;11.826;2024-03-22T04:52:22;0.30;;;0.30;;
19547;SDS011;9919;58.014;11.826;2024-03-22T04:54:24;0.32;;;0.32;;
19547;SDS011;9919;58.014;11.826;2024-03-22T04:56:25;0.45;;;0.45;;
19547;SDS011;9919;58.014;11.826;2024-03-22T04:58:26;0.88;;;0.50;;
19547;SDS011;9919;58.014;11.826;2024-03-22T05:00:28;0.40;;;0.40;;
19547;SDS011;9919;58.014;11.826;2024-03-22T05:02:30;0.38;;;0.38;;
19547;SDS011;9919;58.014;11.826;2024-03-22T05:04:31;0.25;;;0.25;;
19547;SDS011;9919;58.014;11.826;2024-03-22T05:06:33;0.43;;;0.30;;
19547;SDS011;9919;58.014;11.826;2024-03-22T05:08:34;0.40;;;0.40;;
19547;SDS011;9919;58.014;11.826;2024-03-22T05:10:36;0.60;;;0.45;;
19547;SDS011;9919;58.014;11.826;2024-03-22T05:12:37;1.20;;;0.30;;
19547;SDS011;9919;58.014;11.826;2024-03-22T05:14:39;0.35;;;0.35;;
19547;SDS011;9919;58.014;11.826;2024-03-22T05:16:40;0.25;;;0.25;;
19547;SDS011;9919;58.014;11.826;2024-03-22T05:18:42;0.50;;;0.43;;
19547;SDS011;9919;58.014;11.826;2024-03-22T05:20:43;0.20;;;0.20;;
19547;SDS011;9919;58.014;11.826;2024-03-22T05:22:45;0.30;;;0.30;;
19547;SDS011;9919;58.014;11.826;2024-03-22T05:24:47;0.73;;;0.60;;
19547;SDS011;9919;58.014;11.826;2024-03-22T05:26:49;0.22;;;0.22;;
19547;SDS011;9919;58.014;11.826;2024-03-22T05:28:50;1.02;;;0.28;;
19547;SDS011;9919;58.014;11.826;2024-03-22T05:30:52;0.40;;;0.40;;
19547;SDS011;9919;58.014;11.826;2024-03-22T05:32:53;0.50;;;0.50;;
19547;SDS011;9919;58.014;11.826;2024-03-22T05:34:55;0.80;;;0.57;;
19547;SDS011;9919;58.014;11.826;2024-03-22T05:36:56;0.73;;;0.40;;
19547;SDS011;9919;58.014;11.826;2024-03-22T05:38:59;2.10;;;0.70;;
19547;SDS011;9919;58.014;11.826;2024-03-22T05:41:05;0.28;;;0.28;;
19547;SDS011;9919;58.014;11.826;2024-03-22T05:43:06;0.22;;;0.22;;
19547;SDS011;9919;58.014;11.826;2024-03-22T05:45:07;0.40;;;0.40;;
19547;SDS011;9919;58.014;11.826;2024-03-22T05:47:09;0.20;;;0.20;;
19547;SDS011;9919;58.014;11.826;2024-03-22T05:49:10;0.40;;;0.40;;
19547;SDS011;9919;58.014;11.826;2024-03-22T05:51:12;0.28;;;0.28;;
19547;SDS011;9919;58.014;11.826;2024-03-22T05:53:13;0.40;;;0.40;;
19547;SDS011;9919;58.014;11.826;2024-03-22T05:55:14;0.47;;;0.40;;
19547;SDS011;9919;58.014;11.826;2024-03-22T05:57:16;0.30;;;0.30;;
19547;SDS011;9919;58.014;11.826;2024-03-22T05:59:17;0.40;;;0.40;;
19547;SDS011;9919;58.014;11.826;2024-03-22T06:01:19;0.68;;;0.40;;
19547;SDS011;9919;58.014;11.826;2024-03-22T06:03:20;0.38;;;0.38;;
19547;SDS011;9919;58.014;11.826;2024-03-22T06:05:22;0.20;;;0.20;;
19547;SDS011;9919;58.014;11.826;2024-03-22T06:07:24;0.30;;;0.30;;
19547;SDS011;9919;58.014;11.826;2024-03-22T06:09:26;0.45;;;0.43;;
19547;SDS011;9919;58.014;11.826;2024-03-22T06:11:46;0.28;;;0.25;;
19547;SDS011;9919;58.014;11.826;2024-03-22T06:13:47;1.10;;;0.35;;
19547;SDS011;9919;58.014;11.826;2024-03-22T06:15:49;1.00;;;0.45;;
19547;SDS011;9919;58.014;11.826;2024-03-22T06:17:50;0.57;;;0.50;;
19547;SDS011;9919;58.014;11.826;2024-03-22T06:19:53;0.40;;;0.40;;
19547;SDS011;9919;58.014;11.826;2024-03-22T06:21:54;0.43;;;0.43;;
19547;SDS011;9919;58.014;11.826;2024-03-22T06:23:56;0.30;;;0.30;;
19547;SDS011;9919;58.014;11.826;2024-03-22T06:25:57;0.10;;;0.10;;
19547;SDS011;9919;58.014;11.826;2024-03-22T06:27:59;0.30;;;0.30;;
19547;SDS011;9919;58.014;11.826;2024-03-22T06:30:00;0.50;;;0.50;;
19547;SDS011;9919;58.014;11.826;2024-03-22T06:32:03;0.30;;;0.30;;
19547;SDS011;9919;58.014;11.826;2024-03-22T06:34:05;0.40;;;0.40;;
19547;SDS011;9919;58.014;11.826;2024-03-22T06:36:06;0.28;;;0.28;;
19547;SDS011;9919;58.014;11.826;2024-03-22T06:38:08;0.20;;;0.20;;
19547;SDS011;9919;58.014;11.826;2024-03-22T06:40:09;0.25;;;0.25;;
19547;SDS011;9919;58.014;11.826;2024-03-22T06:42:11;0.40;;;0.40;;
19547;SDS011;9919;58.014;11.826;2024-03-22T06:44:12;0.50;;;0.50;;
19547;SDS011;9919;58.014;11.826;2024-03-22T06:46:14;0.45;;;0.45;;
19547;SDS011;9919;58.014;11.826;2024-03-22T06:48:15;0.60;;;0.57;;
19547;SDS011;9919;58.014;11.826;2024-03-22T06:50:17;0.20;;;0.20;;
19547;SDS011;9919;58.014;11.826;2024-03-22T06:52:19;2.35;;;0.50;;
19547;SDS011;9919;58.014;11.826;2024-03-22T06:54:20;0.45;;;0.40;;
19547;SDS011;9919;58.014;11.826;2024-03-22T06:56:22;0.40;;;0.40;;
19547;SDS011;9919;58.014;11.826;2024-03-22T06:58:23;0.28;;;0.28;;
19547;SDS011;9919;58.014;11.826;2024-03-22T07:00:25;0.28;;;0.28;;
19547;SDS011;9919;58.014;11.826;2024-03-22T07:02:26;0.30;;;0.30;;
19547;SDS011;9919;58.014;11.826;2024-03-22T07:04:28;0.50;;;0.43;;
19547;SDS011;9919;58.014;11.826;2024-03-22T07:06:29;0.47;;;0.45;;
19547;SDS011;9919;58.014;11.826;2024-03-22T07:08:30;0.38;;;0.20;;
19547;SDS011;9919;58.014;11.826;2024-03-22T07:10:32;1.08;;;0.60;;
19547;SDS011;9919;58.014;11.826;2024-03-22T07:12:36;0.35;;;0.35;;
19547;SDS011;9919;58.014;11.826;2024-03-22T07:14:38;0.50;;;0.43;;
19547;SDS011;9919;58.014;11.826;2024-03-22T07:16:40;0.40;;;0.40;;
19547;SDS011;9919;58.014;11.826;2024-03-22T07:18:41;0.50;;;0.50;;
19547;SDS011;9919;58.014;11.826;2024-03-22T07:20:42;0.40;;;0.40;;
19547;SDS011;9919;58.014;11.826;2024-03-22T07:22:45;1.00;;;0.57;;
19547;SDS011;9919;58.014;11.826;2024-03-22T07:24:47;0.40;;;0.38;;
19547;SDS011;9919;58.014;11.826;2024-03-22T07:26:49;0.30;;;0.30;;
19547;SDS011;9919;58.014;11.826;2024-03-22T07:28:50;0.63;;;0.63;;
19547;SDS011;9919;58.014;11.826;2024-03-22T07:30:53;1.30;;;0.60;;
19547;SDS011;9919;58.014;11.826;2024-03-22T07:32:55;0.50;;;0.50;;
19547;SDS011;9919;58.014;11.826;2024-03-22T07:34:56;0.55;;;0.55;;
19547;SDS011;9919;58.014;11.826;2024-03-22T07:36:58;0.45;;;0.45;;
19547;SDS011;9919;58.014;11.826;2024-03-22T07:38:59;0.50;;;0.50;;
19547;SDS011;9919;58.014;11.826;2024-03-22T07:41:00;0.57;;;0.57;;
19547;SDS011;9919;58.014;11.826;2024-03-22T07:43:02;0.50;;;0.50;;
19547;SDS011;9919;58.014;11.826;2024-03-22T07:45:06;0.30;;;0.30;;
19547;SDS011;9919;58.014;11.826;2024-03-22T07:47:08;0.50;;;0.50;;
19547;SDS011;9919;58.014;11.826;2024-03-22T07:49:11;0.25;;;0.25;;
19547;SDS011;9919;58.014;11.826;2024-03-22T07:51:12;0.40;;;0.40;;
19547;SDS011;9919;58.014;11.826;2024-03-22T07:53:14;2.42;;;0.43;;
19547;SDS011;9919;58.014;11.826;2024-03-22T07:55:15;0.77;;;0.47;;
19547;SDS011;9919;58.014;11.826;2024-03-22T07:57:17;1.77;;;0.50;;
19547;SDS011;9919;58.014;11.826;2024-03-22T07:59:18;1.02;;;0.40;;
19547;SDS011;9919;58.014;11.826;2024-03-22T08:01:20;0.30;;;0.30;;
19547;SDS011;9919;58.014;11.826;2024-03-22T08:03:21;0.73;;;0.73;;
19547;SDS011;9919;58.014;11.826;2024-03-22T08:05:23;0.55;;;0.45;;
19547;SDS011;9919;58.014;11.826;2024-03-22T08:07:25;0.70;;;0.70;;
19547;SDS011;9919;58.014;11.826;2024-03-22T08:09:27;0.80;;;0.30;;
19547;SDS011;9919;58.014;11.826;2024-03-22T08:11:28;0.32;;;0.22;;
19547;SDS011;9919;58.014;11.826;2024-03-22T08:13:30;0.63;;;0.38;;
19547;SDS011;9919;58.014;11.826;2024-03-22T08:15:32;0.45;;;0.45;;
19547;SDS011;9919;58.014;11.826;2024-03-22T08:17:33;0.47;;;0.47;;
19547;SDS011;9919;58.014;11.826;2024-03-22T08:19:34;0.40;;;0.40;;
19547;SDS011;9919;58.014;11.826;2024-03-22T08:21:36;0.40;;;0.40;;
19547;SDS011;9919;58.014;11.826;2024-03-22T08:23:38;0.32;;;0.32;;
19547;SDS011;9919;58.014;11.826;2024-03-22T08:25:39;0.93;;;0.70;;
19547;SDS011;9919;58.014;11.826;2024-03-22T08:27:42;0.40;;;0.40;;
19547;SDS011;9919;58.014;11.826;2024-03-22T08:29:43;0.47;;;0.47;;
19547;SDS011;9919;58.014;11.826;2024-03-22T08:31:45;0.80;;;0.68;;
19547;SDS011;9919;58.014;11.826;2024-03-22T08:33:46;0.40;;;0.40;;
19547;SDS011;9919;58.014;11.826;2024-03-22T08:35:48;0.65;;;0.40;;
19547;SDS011;9919;58.014;11.826;2024-03-22T08:37:49;1.73;;;0.50;;
19547;SDS011;9919;58.014;11.826;2024-03-22T08:39:50;1.20;;;0.98;;
19547;SDS011;9919;58.014;11.826;2024-03-22T08:41:52;0.47;;;0.47;;
19547;SDS011;9919;58.014;11.826;2024-03-22T08:43:53;0.55;;;0.55;;
19547;SDS011;9919;58.014;11.826;2024-03-22T08:45:55;0.85;;;0.55;;
19547;SDS011;9919;58.014;11.826;2024-03-22T08:47:56;0.52;;;0.52;;
19547;SDS011;9919;58.014;11.826;2024-03-22T08:49:57;0.52;;;0.47;;
19547;SDS011;9919;58.014;11.826;2024-03-22T08:51:59;0.43;;;0.43;;
19547;SDS011;9919;58.014;11.826;2024-03-22T08:54:00;0.40;;;0.40;;
19547;SDS011;9919;58.014;11.826;2024-03-22T08:56:02;0.40;;;0.40;;
19547;SDS011;9919;58.014;11.826;2024-03-22T08:58:04;0.63;;;0.60;;
19547;SDS011;9919;58.014;11.826;2024-03-22T09:00:05;1.08;;;0.50;;
19547;SDS011;9919;58.014;11.826;2024-03-22T09:02:08;0.50;;;0.50;;
19547;SDS011;9919;58.014;11.826;2024-03-22T09:04:09;0.50;;;0.47;;
19547;SDS011;9919;58.014;11.826;2024-03-22T09:06:10;0.70;;;0.47;;
19547;SDS011;9919;58.014;11.826;2024-03-22T09:08:12;0.40;;;0.40;;
19547;SDS011;9919;58.014;11.826;2024-03-22T09:10:14;0.55;;;0.55;;
19547;SDS011;9919;58.014;11.826;2024-03-22T09:12:15;1.55;;;0.77;;
19547;SDS011;9919;58.014;11.826;2024-03-22T09:14:16;2.95;;;0.68;;
19547;SDS011;9919;58.014;11.826;2024-03-22T09:16:18;1.58;;;0.88;;
19547;SDS011;9919;58.014;11.826;2024-03-22T09:18:20;0.45;;;0.45;;
19547;SDS011;9919;58.014;11.826;2024-03-22T09:20:22;0.52;;;0.45;;
19547;SDS011;9919;58.014;11.826;2024-03-22T09:22:23;0.40;;;0.40;;
19547;SDS011;9919;58.014;11.826;2024-03-22T09:24:24;0.52;;;0.52;;
19547;SDS011;9919;58.014;11.826;2024-03-22T09:26:26;0.52;;;0.52;;
19547;SDS011;9919;58.014;11.826;2024-03-22T09:28:27;0.57;;;0.57;;
19547;SDS011;9919;58.014;11.826;2024-03-22T09:30:28;1.85;;;0.70;;
19547;SDS011;9919;58.014;11.826;2024-03-22T09:32:30;3.08;;;0.60;;
19547;SDS011;9919;58.014;11.826;2024-03-22T09:34:31;1.58;;;0.80;;
19547;SDS011;9919;58.014;11.826;2024-03-22T09:36:33;2.47;;;0.77;;
19547;SDS011;9919;58.014;11.826;2024-03-22T09:38:35;0.60;;;0.50;;
19547;SDS011;9919;58.014;11.826;2024-03-22T09:40:38;0.47;;;0.47;;
19547;SDS011;9919;58.014;11.826;2024-03-22T09:42:42;0.75;;;0.70;;
19547;SDS011;9919;58.014;11.826;2024-03-22T09:44:47;3.10;;;1.38;;
19547;SDS011;9919;58.014;11.826;2024-03-22T09:46:49;3.45;;;0.90;;
19547;SDS011;9919;58.014;11.826;2024-03-22T09:48:51;2.13;;;0.70;;
19547;SDS011;9919;58.014;11.826;2024-03-22T09:50:54;2.22;;;0.57;;
19547;SDS011;9919;58.014;11.826;2024-03-22T09:52:56;3.33;;;1.00;;
19547;SDS011;9919;58.014;11.826;2024-03-22T09:54:57;4.43;;;1.10;;
19547;SDS011;9919;58.014;11.826;2024-03-22T09:56:59;3.38;;;1.15;;
19547;SDS011;9919;58.014;11.826;2024-03-22T09:59:01;1.65;;;0.90;;
19547;SDS011;9919;58.014;11.826;2024-03-22T10:01:02;2.78;;;0.75;;
19547;SDS011;9919;58.014;11.826;2024-03-22T10:03:05;5.38;;;1.00;;
19547;SDS011;9919;58.014;11.826;2024-03-22T10:05:07;8.25;;;1.38;;
19547;SDS011;9919;58.014;11.826;2024-03-22T10:07:08;2.42;;;0.88;;
19547;SDS011;9919;58.014;11.826;2024-03-22T10:09:10;1.52;;;1.08;;
19547;SDS011;9919;58.014;11.826;2024-03-22T10:11:11;8.88;;;2.83;;
19547;SDS011;9919;58.014;11.826;2024-03-22T10:13:13;3.42;;;1.65;;
19547;SDS011;9919;58.014;11.826;2024-03-22T10:15:14;3.45;;;1.42;;
19547;SDS011;9919;58.014;11.826;2024-03-22T10:17:16;5.55;;;1.20;;
19547;SDS011;9919;58.014;11.826;2024-03-22T10:19:18;6.35;;;1.95;;
19547;SDS011;9919;58.014;11.826;2024-03-22T10:21:23;8.93;;;1.35;;
19547;SDS011;9919;58.014;11.826;2024-03-22T10:23:25;7.45;;;1.20;;
19547;SDS011;9919;58.014;11.826;2024-03-22T10:25:26;2.33;;;1.10;;
19547;SDS011;9919;58.014;11.826;2024-03-22T10:27:28;4.28;;;1.20;;
19547;SDS011;9919;58.014;11.826;2024-03-22T10:29:30;3.42;;;1.30;;
19547;SDS011;9919;58.014;11.826;2024-03-22T10:31:31;1.95;;;0.90;;
19547;SDS011;9919;58.014;11.826;2024-03-22T10:33:34;3.25;;;1.35;;
19547;SDS011;9919;58.014;11.826;2024-03-22T10:35:35;3.67;;;2.08;;
19547;SDS011;9919;58.014;11.826;2024-03-22T10:37:37;4.10;;;1.17;;
19547;SDS011;9919;58.014;11.826;2024-03-22T10:39:39;1.23;;;1.05;;
19547;SDS011;9919;58.014;11.826;2024-03-22T10:41:41;2.75;;;1.25;;
19547;SDS011;9919;58.014;11.826;2024-03-22T10:43:42;6.28;;;1.17;;
19547;SDS011;9919;58.014;11.826;2024-03-22T10:45:44;3.25;;;0.77;;
19547;SDS011;9919;58.014;11.826;2024-03-22T10:47:48;3.60;;;0.90;;
19547;SDS011;9919;58.014;11.826;2024-03-22T10:49:50;5.43;;;1.33;;
19547;SDS011;9919;58.014;11.826;2024-03-22T10:51:58;2.90;;;1.17;;
19547;SDS011;9919;58.014;11.826;2024-03-22T10:54:02;3.75;;;1.40;;
19547;SDS011;9919;58.014;11.826;2024-03-22T10:56:04;5.47;;;2.30;;
19547;SDS011;9919;58.014;11.826;2024-03-22T10:58:16;6.07;;;1.00;;
19547;SDS011;9919;58.014;11.826;2024-03-22T11:00:26;6.70;;;1.75;;
19547;SDS011;9919;58.014;11.826;2024-03-22T11:02:37;4.40;;;1.50;;
19547;SDS011;9919;58.014;11.826;2024-03-22T11:04:39;2.30;;;1.48;;
19547;SDS011;9919;58.014;11.826;2024-03-22T11:06:40;5.53;;;1.27;;
19547;SDS011;9919;58.014;11.826;2024-03-22T11:08:50;2.72;;;1.90;;
19547;SDS011;9919;58.014;11.826;2024-03-22T11:10:52;4.15;;;1.42;;
19547;SDS011;9919;58.014;11.826;2024-03-22T11:12:53;2.97;;;1.25;;
19547;SDS011;9919;58.014;11.826;2024-03-22T11:14:55;1.67;;;0.98;;
19547;SDS011;9919;58.014;11.826;2024-03-22T11:16:56;1.65;;;0.95;;
19547;SDS011;9919;58.014;11.826;2024-03-22T11:18:58;6.10;;;1.60;;
19547;SDS011;9919;58.014;11.826;2024-03-22T11:20:59;1.67;;;0.93;;
19547;SDS011;9919;58.014;11.826;2024-03-22T11:23:01;1.40;;;0.82;;
19547;SDS011;9919;58.014;11.826;2024-03-22T11:25:03;2.47;;;0.90;;
19547;SDS011;9919;58.014;11.826;2024-03-22T11:27:05;3.15;;;0.70;;
19547;SDS011;9919;58.014;11.826;2024-03-22T11:29:07;3.03;;;1.35;;
19547;SDS011;9919;58.014;11.826;2024-03-22T11:31:08;0.95;;;0.82;;
19547;SDS011;9919;58.014;11.826;2024-03-22T11:33:10;3.53;;;1.13;;
19547;SDS011;9919;58.014;11.826;2024-03-22T11:35:11;5.80;;;1.98;;
19547;SDS011;9919;58.014;11.826;2024-03-22T11:37:13;1.13;;;1.02;;
19547;SDS011;9919;58.014;11.826;2024-03-22T11:39:14;1.90;;;0.82;;
19547;SDS011;9919;58.014;11.826;2024-03-22T11:41:17;3.80;;;1.15;;
19547;SDS011;9919;58.014;11.826;2024-03-22T11:43:23;4.18;;;1.10;;
19547;SDS011;9919;58.014;11.826;2024-03-22T11:45:25;1.95;;;0.90;;
19547;SDS011;9919;58.014;11.826;2024-03-22T11:47:27;1.60;;;1.17;;
19547;SDS011;9919;58.014;11.826;2024-03-22T11:49:28;2.60;;;0.65;;
19547;SDS011;9919;58.014;11.826;2024-03-22T11:51:29;2.60;;;0.88;;
19547;SDS011;9919;58.014;11.826;2024-03-22T11:53:31;2.90;;;1.00;;
19547;SDS011;9919;58.014;11.826;2024-03-22T11:55:35;2.92;;;1.08;;
19547;SDS011;9919;58.014;11.826;2024-03-22T11:57:36;3.15;;;1.67;;
19547;SDS011;9919;58.014;11.826;2024-03-22T11:59:40;3.83;;;1.33;;
19547;SDS011;9919;58.014;11.826;2024-03-22T12:01:41;1.48;;;1.35;;
19547;SDS011;9919;58.014;11.826;2024-03-22T12:03:49;6.07;;;1.25;;
19547;SDS011;9919;58.014;11.826;2024-03-22T12:05:52;3.80;;;1.30;;
19547;SDS011;9919;58.014;11.826;2024-03-22T12:07:54;2.72;;;1.48;;
19547;SDS011;9919;58.014;11.826;2024-03-22T12:09:56;0.65;;;0.63;;
19547;SDS011;9919;58.014;11.826;2024-03-22T12:11:57;3.97;;;0.95;;
19547;SDS011;9919;58.014;11.826;2024-03-22T12:13:58;2.45;;;1.10;;